createdAt,value
2023-02-17T00:04:56.875Z,80.18
2023-02-17T00:10:01.628Z,80.55
2023-02-17T00:15:13.376Z,80.57
2023-02-17T00:20:17.386Z,80.36
2023-02-17T00:25:21.345Z,80.53
2023-02-17T00:30:25.164Z,80.61
2023-02-17T00:35:31.657Z,80.22
2023-02-17T00:40:35.488Z,79.79
2023-02-17T00:45:42.258Z,79.42
2023-02-17T00:50:46.729Z,79.37
2023-02-17T00:55:50.719Z,79.54
2023-02-17T01:01:01.782Z,79.59
2023-02-17T01:06:08.377Z,79.59
2023-02-17T01:11:24.709Z,79.69
2023-02-17T01:16:35.602Z,79.52
2023-02-17T01:21:40.036Z,79.53
2023-02-17T01:26:49.127Z,79.47
2023-02-17T01:31:53.430Z,79.38
2023-02-17T01:36:57.900Z,79.28
2023-02-17T01:42:04.077Z,79.31
2023-02-17T01:47:13.357Z,79.33
2023-02-17T01:52:23.746Z,79.41
2023-02-17T01:57:31.323Z,79.43
2023-02-17T02:02:38.048Z,79.48
2023-02-17T02:07:43.184Z,79.45
2023-02-17T02:12:50.127Z,79.43
2023-02-17T02:18:21.898Z,79.39
2023-02-17T02:23:47.937Z,79.37
2023-02-17T02:29:48.713Z,79.37
2023-02-17T02:35:02.150Z,79.32
2023-02-17T02:40:09.299Z,79.28
2023-02-17T02:45:14.428Z,79.25
2023-02-17T02:50:36.416Z,79.21
2023-02-17T02:56:29.397Z,79.05
2023-02-17T03:02:22.932Z,79.06
2023-02-17T03:07:40.322Z,79.11
2023-02-17T03:12:45.629Z,79.25
2023-02-17T03:17:49.530Z,79.57
2023-02-17T03:22:55.189Z,79.86
2023-02-17T03:28:04.377Z,79.97
2023-02-17T03:33:09.137Z,80.16
2023-02-17T03:38:13.048Z,80.22
2023-02-17T03:43:18.109Z,80.21
2023-02-17T03:48:33.119Z,80.13
2023-02-17T03:53:40.453Z,80.11
2023-02-17T03:58:44.402Z,80.09
2023-02-17T04:03:48.516Z,80.07
2023-02-17T04:08:56.412Z,80.07
2023-02-17T04:14:00.460Z,80.14
2023-02-17T04:19:04.384Z,80.24
2023-02-17T04:24:08.545Z,80.42
2023-02-17T04:29:12.316Z,80.54
2023-02-17T04:34:17.663Z,80.61
2023-02-17T04:39:22.161Z,80.76
2023-02-17T04:44:26.217Z,81.04
2023-02-17T04:49:31.205Z,81.29
2023-02-17T04:54:35.233Z,81.70
2023-02-17T04:59:40.904Z,81.81
2023-02-17T05:04:46.445Z,81.99
2023-02-17T05:09:50.693Z,82.37
2023-02-17T05:14:58.331Z,82.54
2023-02-17T05:20:09.276Z,82.57
2023-02-17T05:25:15.716Z,82.77
2023-02-17T05:30:20.089Z,83.16
2023-02-17T05:35:25.242Z,83.44
2023-02-17T05:40:35.337Z,83.40
2023-02-17T05:45:39.162Z,83.74
2023-02-17T05:50:46.131Z,83.94
2023-02-17T05:55:49.967Z,84.20
2023-02-17T06:00:54.088Z,84.50
2023-02-17T06:05:58.235Z,84.50
2023-02-17T06:11:02.355Z,84.26
2023-02-17T06:16:12.403Z,84.06
2023-02-17T06:21:16.264Z,84.07
2023-02-17T06:26:23.672Z,84.05
2023-02-17T06:31:30.560Z,84.71
2023-02-17T06:36:34.565Z,84.82
2023-02-17T06:41:38.543Z,84.49
2023-02-17T06:46:42.413Z,83.96
2023-02-17T06:51:52.215Z,84.46
2023-02-17T06:56:59.108Z,84.81
2023-02-17T07:02:05.941Z,85.01
2023-02-17T07:07:10.672Z,85.60
2023-02-17T07:12:14.642Z,84.54
2023-02-17T07:17:18.339Z,84.82
2023-02-17T07:22:22.181Z,85.40
2023-02-17T07:27:26.150Z,85.61
2023-02-17T07:32:32.856Z,86.17
2023-02-17T07:37:37.714Z,86.68
2023-02-17T07:42:41.527Z,86.58
2023-02-17T07:47:47.569Z,86.41
2023-02-17T07:52:51.779Z,86.42
2023-02-17T07:57:55.666Z,87.18
2023-02-17T08:02:59.732Z,86.01
2023-02-17T08:08:22.064Z,87.09
2023-02-17T08:13:28.503Z,86.03
2023-02-17T08:18:36.537Z,85.50
2023-02-17T08:23:43.330Z,85.29
2023-02-17T08:28:50.243Z,84.96
2023-02-17T08:33:54.357Z,84.84
2023-02-17T08:38:59.201Z,84.45
2023-02-17T08:44:07.282Z,84.33
2023-02-17T08:49:11.349Z,84.68
2023-02-17T08:54:16.125Z,83.86
2023-02-17T08:59:20.665Z,83.49
2023-02-17T09:04:25.023Z,83.23
2023-02-17T09:09:29.417Z,83.08
2023-02-17T09:14:33.760Z,82.89
2023-02-17T09:19:41.380Z,82.72
2023-02-17T09:24:47.552Z,82.67
2023-02-17T09:29:51.500Z,82.68
2023-02-17T09:34:55.659Z,82.34
2023-02-17T09:39:59.678Z,82.30
2023-02-17T09:45:12.841Z,82.28
2023-02-17T09:50:29.030Z,82.23
2023-02-17T09:55:50.521Z,82.18
2023-02-17T10:00:59.327Z,82.07
2023-02-17T10:06:19.689Z,81.87
2023-02-17T10:11:55.444Z,81.85
2023-02-17T10:17:27.937Z,81.85
2023-02-17T10:22:31.832Z,81.59
2023-02-17T10:28:11.342Z,81.01
2023-02-17T10:33:28.696Z,80.76
2023-02-17T10:38:54.984Z,80.52
2023-02-17T10:44:01.043Z,80.18
2023-02-17T10:49:07.134Z,79.59
2023-02-17T10:54:22.276Z,78.94
2023-02-17T10:59:47.441Z,78.34
2023-02-17T11:04:55.492Z,78.28
2023-02-17T11:10:02.429Z,78.50
2023-02-17T11:15:16.187Z,78.40
2023-02-17T11:20:40.393Z,78.02
2023-02-17T11:25:44.835Z,77.75
2023-02-17T11:30:55.087Z,77.79
2023-02-17T11:35:59.899Z,77.73
2023-02-17T11:41:07.340Z,77.89
2023-02-17T11:46:39.518Z,78.00
2023-02-17T11:52:05.261Z,77.53
2023-02-17T11:57:39.693Z,77.39
2023-02-17T12:03:25.625Z,77.48
2023-02-17T12:09:17.488Z,77.09
2023-02-17T12:14:59.033Z,76.97
2023-02-17T12:20:25.477Z,76.91
2023-02-17T12:25:36.204Z,76.71
2023-02-17T12:31:09.899Z,76.41
2023-02-17T12:36:17.712Z,76.01
2023-02-17T12:41:25.677Z,76.07
2023-02-17T12:46:35.677Z,75.85
2023-02-17T12:51:48.874Z,75.99
2023-02-17T12:57:22.063Z,76.31
2023-02-17T13:02:26.940Z,76.68
2023-02-17T13:08:00.807Z,77.17
2023-02-17T13:13:10.185Z,77.24
2023-02-17T13:18:32.294Z,77.99
2023-02-17T13:23:41.516Z,78.42
2023-02-17T13:28:46.203Z,78.68
2023-02-17T13:33:52.973Z,78.05
2023-02-17T13:39:01.410Z,78.20
2023-02-17T13:44:29.926Z,77.95
2023-02-17T13:49:35.690Z,77.76
2023-02-17T13:54:39.670Z,77.66
2023-02-17T13:59:43.743Z,77.97
2023-02-17T14:04:48.015Z,78.26
2023-02-17T14:09:55.283Z,78.64
2023-02-17T14:14:59.184Z,78.80
2023-02-17T14:20:04.679Z,79.10
2023-02-17T14:25:14.284Z,79.59
2023-02-17T14:30:38.707Z,81.16
2023-02-17T14:36:01.426Z,81.65
2023-02-17T14:41:07.275Z,81.28
2023-02-17T14:46:12.287Z,81.23
2023-02-17T14:51:20.306Z,80.90
2023-02-17T14:56:37.565Z,81.35
2023-02-17T15:01:42.002Z,81.03
2023-02-17T15:06:53.295Z,80.95
2023-02-17T15:11:58.476Z,80.88
2023-02-17T15:17:03.212Z,80.73
2023-02-17T15:22:08.695Z,80.80
2023-02-17T15:27:17.761Z,81.02
2023-02-17T15:32:25.502Z,80.56
2023-02-17T15:37:30.016Z,80.75
2023-02-17T15:42:34.942Z,80.85
2023-02-17T15:47:39.600Z,81.10
2023-02-17T15:52:46.590Z,81.00
2023-02-17T15:57:58.786Z,80.76
2023-02-17T16:03:06.286Z,80.56
2023-02-17T16:08:15.907Z,80.24
2023-02-17T16:13:20.896Z,80.18
2023-02-17T16:18:28.063Z,80.18
2023-02-17T16:23:33.221Z,80.58
2023-02-17T16:28:37.387Z,81.50
2023-02-17T16:33:42.242Z,82.29
2023-02-17T16:38:54.419Z,83.07
2023-02-17T16:43:59.474Z,83.97
2023-02-17T16:49:36.978Z,84.44
2023-02-17T16:54:41.377Z,85.01
2023-02-17T16:59:47.674Z,85.02
2023-02-17T17:04:57.209Z,85.23
2023-02-17T17:10:57.740Z,85.65
2023-02-17T17:16:37.936Z,85.89
2023-02-17T17:21:54.714Z,85.87
2023-02-17T17:27:05.133Z,86.13
2023-02-17T17:32:16.588Z,86.37
2023-02-17T19:18:35.926Z,76.86
2023-02-17T19:23:42.364Z,77.14
2023-02-17T19:28:47.198Z,76.63
2023-02-17T19:33:54.334Z,76.69
2023-02-17T19:39:01.814Z,76.59
2023-02-17T19:44:50.354Z,76.42
2023-02-17T19:50:17.807Z,77.16
2023-02-17T19:55:28.732Z,77.15
2023-02-17T20:00:42.301Z,76.94
2023-02-17T20:05:56.273Z,77.24
2023-02-17T20:11:10.429Z,77.87
2023-02-17T20:16:27.451Z,78.45
2023-02-17T20:22:23.736Z,78.57
2023-02-17T20:27:32.966Z,78.55
2023-02-17T20:32:42.123Z,78.56
2023-02-17T20:37:56.042Z,78.52
2023-02-17T20:43:09.370Z,78.55
2023-02-17T20:48:28.666Z,78.63
2023-02-17T20:53:34.615Z,78.85
2023-02-17T20:58:40.431Z,79.39
2023-02-17T21:03:46.027Z,79.88
2023-02-17T21:08:52.875Z,80.36
2023-02-17T21:13:58.797Z,80.57
2023-02-17T21:19:04.906Z,80.44
2023-02-17T21:24:10.033Z,80.69
2023-02-17T21:29:14.834Z,81.03
2023-02-17T21:34:20.014Z,80.94
2023-02-17T21:39:24.762Z,80.55
2023-02-17T21:44:48.946Z,80.11
2023-02-17T21:49:55.259Z,79.85
2023-02-17T21:55:01.742Z,79.62
2023-02-17T22:00:07.184Z,79.44
2023-02-17T22:05:17.552Z,79.52
2023-02-17T22:10:21.497Z,80.70
2023-02-17T22:15:25.502Z,82.77
2023-02-17T22:20:29.324Z,81.12
2023-02-17T22:25:33.277Z,80.86
2023-02-17T22:30:37.261Z,81.31
2023-02-17T22:35:41.270Z,80.74
2023-02-17T22:40:45.257Z,78.88
2023-02-17T22:45:49.249Z,77.37
2023-02-17T22:50:53.314Z,76.00
2023-02-17T22:55:58.214Z,74.74
2023-02-17T23:01:09.347Z,73.54
2023-02-17T23:06:15.653Z,72.15
2023-02-17T23:11:42.790Z,70.09
2023-02-17T23:16:47.077Z,66.44
2023-02-17T23:21:54.029Z,65.28
2023-02-17T23:27:00.773Z,64.88
2023-02-17T23:32:05.392Z,65.01
2023-02-17T23:37:09.468Z,64.24
2023-02-17T23:42:13.366Z,63.56
2023-02-17T23:47:17.302Z,64.46
2023-02-17T23:52:21.425Z,66.34
2023-02-17T23:57:27.094Z,69.35
